Terminal Aerodrome Forecast
Issued by NWS

Home | Current Version | Previous Version | Text Only | Print | Product List | Glossary On
Versions: 1 2 3 4 5 6 7 8 9 10 11 12 13 14
088
FTUS46 KSEW 260710 AAA
TAFOLM
TAF AMD
KOLM 260710Z 2607/2706 21010KT 5SM -RA SCT006 OVC012
      TEMPO 2607/2610 3SM -RA BR BKN006 OVC012
     FM261000 20012KT 5SM -SHRA BR BKN006 OVC012
      TEMPO 2610/2614 2SM BR OVC006
     FM261400 22012KT 5SM -SHRA BKN012 OVC022
     FM261900 25014KT P6SM VCSH BKN030
     FM270500 21010KT P6SM OVC022=

USA.gov is the U.S. government's official web portal to all federal, state and local government web resources and services.